sensor_id;sensor_type;location;lat;lon;timestamp;temperature;humidity
29363;DHT22;16349;53.672;10.014;2022-11-15T00:01:55;6.20;99.90
29363;DHT22;16349;53.672;10.014;2022-11-15T00:04:42;6.20;99.90
29363;DHT22;16349;53.672;10.014;2022-11-15T00:07:28;6.20;99.90
29363;DHT22;16349;53.672;10.014;2022-11-15T00:10:13;6.20;99.90
29363;DHT22;16349;53.672;10.014;2022-11-15T00:12:59;6.20;99.90
29363;DHT22;16349;53.672;10.014;2022-11-15T00:15:46;6.10;99.90
29363;DHT22;16349;53.672;10.014;2022-11-15T00:18:32;6.10;99.90
29363;DHT22;16349;53.672;10.014;2022-11-15T00:21:19;6.10;99.90
29363;DHT22;16349;53.672;10.014;2022-11-15T00:24:05;6.10;99.90
29363;DHT22;16349;53.672;10.014;2022-11-15T00:26:51;6.10;99.90
29363;DHT22;16349;53.672;10.014;2022-11-15T00:29:37;6.10;99.90
29363;DHT22;16349;53.672;10.014;2022-11-15T00:32:23;6.10;99.90
29363;DHT22;16349;53.672;10.014;2022-11-15T00:35:08;6.00;99.90
29363;DHT22;16349;53.672;10.014;2022-11-15T00:37:56;6.00;99.90
29363;DHT22;16349;53.672;10.014;2022-11-15T00:40:41;6.00;99.90
29363;DHT22;16349;53.672;10.014;2022-11-15T00:43:27;6.00;99.90
29363;DHT22;16349;53.672;10.014;2022-11-15T00:46:13;6.00;99.90
29363;DHT22;16349;53.672;10.014;2022-11-15T00:48:58;6.00;99.90
29363;DHT22;16349;53.672;10.014;2022-11-15T00:51:44;6.10;99.90
29363;DHT22;16349;53.672;10.014;2022-11-15T00:54:31;6.10;99.90
29363;DHT22;16349;53.672;10.014;2022-11-15T00:57:17;6.00;99.90
29363;DHT22;16349;53.672;10.014;2022-11-15T01:00:04;6.00;99.90
29363;DHT22;16349;53.672;10.014;2022-11-15T01:02:50;6.00;99.90
29363;DHT22;16349;53.672;10.014;2022-11-15T01:05:37;6.00;99.90
29363;DHT22;16349;53.672;10.014;2022-11-15T01:08:23;6.00;99.90
29363;DHT22;16349;53.672;10.014;2022-11-15T01:11:11;5.90;99.90
29363;DHT22;16349;53.672;10.014;2022-11-15T01:13:58;5.90;99.90
29363;DHT22;16349;53.672;10.014;2022-11-15T01:16:44;5.90;99.90
29363;DHT22;16349;53.672;10.014;2022-11-15T01:19:29;5.90;99.90
29363;DHT22;16349;53.672;10.014;2022-11-15T01:22:16;5.90;99.90
29363;DHT22;16349;53.672;10.014;2022-11-15T01:25:01;5.90;99.90
29363;DHT22;16349;53.672;10.014;2022-11-15T01:27:48;5.90;99.90
29363;DHT22;16349;53.672;10.014;2022-11-15T01:30:35;5.90;99.90
29363;DHT22;16349;53.672;10.014;2022-11-15T01:33:22;5.90;99.90
29363;DHT22;16349;53.672;10.014;2022-11-15T01:36:12;5.90;99.90
29363;DHT22;16349;53.672;10.014;2022-11-15T01:38:58;5.80;99.90
29363;DHT22;16349;53.672;10.014;2022-11-15T01:41:45;5.80;99.90
29363;DHT22;16349;53.672;10.014;2022-11-15T01:44:42;5.70;99.90
29363;DHT22;16349;53.672;10.014;2022-11-15T01:47:31;5.70;99.90
29363;DHT22;16349;53.672;10.014;2022-11-15T01:50:21;5.70;99.90
29363;DHT22;16349;53.672;10.014;2022-11-15T01:53:08;5.60;99.90
29363;DHT22;16349;53.672;10.014;2022-11-15T01:55:55;5.60;99.90
29363;DHT22;16349;53.672;10.014;2022-11-15T01:58:41;5.60;99.90
29363;DHT22;16349;53.672;10.014;2022-11-15T02:01:30;5.60;99.90
29363;DHT22;16349;53.672;10.014;2022-11-15T02:04:21;5.50;99.90
29363;DHT22;16349;53.672;10.014;2022-11-15T02:07:11;5.50;99.90
29363;DHT22;16349;53.672;10.014;2022-11-15T02:09:58;5.50;99.90
29363;DHT22;16349;53.672;10.014;2022-11-15T02:12:45;5.50;99.90
29363;DHT22;16349;53.672;10.014;2022-11-15T02:15:40;5.50;99.90
29363;DHT22;16349;53.672;10.014;2022-11-15T02:18:35;5.50;99.90
29363;DHT22;16349;53.672;10.014;2022-11-15T02:21:28;5.40;99.90
29363;DHT22;16349;53.672;10.014;2022-11-15T02:28:06;5.40;99.90
29363;DHT22;16349;53.672;10.014;2022-11-15T02:31:01;5.30;99.90
29363;DHT22;16349;53.672;10.014;2022-11-15T02:33:54;5.30;99.90
29363;DHT22;16349;53.672;10.014;2022-11-15T02:36:52;5.30;99.90
29363;DHT22;16349;53.672;10.014;2022-11-15T02:39:44;5.20;99.90
29363;DHT22;16349;53.672;10.014;2022-11-15T02:42:35;5.20;99.90
29363;DHT22;16349;53.672;10.014;2022-11-15T02:45:44;5.20;99.90
29363;DHT22;16349;53.672;10.014;2022-11-15T02:48:34;5.20;99.90
29363;DHT22;16349;53.672;10.014;2022-11-15T02:51:20;5.10;99.90
29363;DHT22;16349;53.672;10.014;2022-11-15T02:54:09;5.10;99.90
29363;DHT22;16349;53.672;10.014;2022-11-15T02:56:59;5.00;99.90
29363;DHT22;16349;53.672;10.014;2022-11-15T03:00:04;5.00;99.90
29363;DHT22;16349;53.672;10.014;2022-11-15T03:03:12;4.90;99.90
29363;DHT22;16349;53.672;10.014;2022-11-15T03:06:10;4.90;99.90
29363;DHT22;16349;53.672;10.014;2022-11-15T03:09:04;4.80;99.90
29363;DHT22;16349;53.672;10.014;2022-11-15T03:11:57;4.80;99.90
29363;DHT22;16349;53.672;10.014;2022-11-15T03:14:51;4.80;99.90
29363;DHT22;16349;53.672;10.014;2022-11-15T03:17:40;4.80;99.90
29363;DHT22;16349;53.672;10.014;2022-11-15T03:20:29;4.80;99.90
29363;DHT22;16349;53.672;10.014;2022-11-15T03:23:17;4.70;99.90
29363;DHT22;16349;53.672;10.014;2022-11-15T03:26:07;4.70;99.90
29363;DHT22;16349;53.672;10.014;2022-11-15T03:28:54;4.70;99.90
29363;DHT22;16349;53.672;10.014;2022-11-15T03:31:45;4.60;99.90
29363;DHT22;16349;53.672;10.014;2022-11-15T03:34:38;4.60;99.90
29363;DHT22;16349;53.672;10.014;2022-11-15T03:37:29;4.60;99.90
29363;DHT22;16349;53.672;10.014;2022-11-15T03:40:24;4.60;99.90
29363;DHT22;16349;53.672;10.014;2022-11-15T03:43:18;4.60;99.90
29363;DHT22;16349;53.672;10.014;2022-11-15T03:46:10;4.60;99.90
29363;DHT22;16349;53.672;10.014;2022-11-15T03:49:02;4.50;99.90
29363;DHT22;16349;53.672;10.014;2022-11-15T03:51:49;4.60;99.90
29363;DHT22;16349;53.672;10.014;2022-11-15T03:54:36;4.40;99.90
29363;DHT22;16349;53.672;10.014;2022-11-15T03:57:22;4.50;99.90
29363;DHT22;16349;53.672;10.014;2022-11-15T04:00:09;4.50;99.90
29363;DHT22;16349;53.672;10.014;2022-11-15T04:02:55;4.50;99.90
29363;DHT22;16349;53.672;10.014;2022-11-15T04:05:41;4.50;99.90
29363;DHT22;16349;53.672;10.014;2022-11-15T04:08:26;4.50;99.90
29363;DHT22;16349;53.672;10.014;2022-11-15T04:11:12;4.50;99.90
29363;DHT22;16349;53.672;10.014;2022-11-15T04:13:59;4.50;99.90
29363;DHT22;16349;53.672;10.014;2022-11-15T04:16:45;4.50;99.90
29363;DHT22;16349;53.672;10.014;2022-11-15T04:19:30;4.50;99.90
29363;DHT22;16349;53.672;10.014;2022-11-15T04:22:33;4.50;99.90
29363;DHT22;16349;53.672;10.014;2022-11-15T04:25:37;4.50;99.90
29363;DHT22;16349;53.672;10.014;2022-11-15T04:28:23;4.50;99.90
29363;DHT22;16349;53.672;10.014;2022-11-15T04:31:10;4.50;99.90
29363;DHT22;16349;53.672;10.014;2022-11-15T04:33:56;4.50;99.90
29363;DHT22;16349;53.672;10.014;2022-11-15T04:36:42;4.50;99.90
29363;DHT22;16349;53.672;10.014;2022-11-15T04:39:45;4.50;99.90
29363;DHT22;16349;53.672;10.014;2022-11-15T04:42:31;4.50;99.90
29363;DHT22;16349;53.672;10.014;2022-11-15T04:45:17;4.60;99.90
29363;DHT22;16349;53.672;10.014;2022-11-15T04:48:05;4.60;99.90
29363;DHT22;16349;53.672;10.014;2022-11-15T04:50:51;4.60;99.90
29363;DHT22;16349;53.672;10.014;2022-11-15T04:53:37;4.70;99.90
29363;DHT22;16349;53.672;10.014;2022-11-15T04:56:23;4.80;99.90
29363;DHT22;16349;53.672;10.014;2022-11-15T04:59:09;4.80;99.90
29363;DHT22;16349;53.672;10.014;2022-11-15T05:01:54;4.90;99.90
29363;DHT22;16349;53.672;10.014;2022-11-15T05:04:41;4.90;99.90
29363;DHT22;16349;53.672;10.014;2022-11-15T05:07:26;4.90;99.90
29363;DHT22;16349;53.672;10.014;2022-11-15T05:10:11;5.00;99.90
29363;DHT22;16349;53.672;10.014;2022-11-15T05:12:57;5.00;99.90
29363;DHT22;16349;53.672;10.014;2022-11-15T05:15:43;5.10;99.90
29363;DHT22;16349;53.672;10.014;2022-11-15T05:18:28;5.10;99.90
29363;DHT22;16349;53.672;10.014;2022-11-15T05:21:15;5.20;99.90
29363;DHT22;16349;53.672;10.014;2022-11-15T05:24:02;5.30;99.90
29363;DHT22;16349;53.672;10.014;2022-11-15T05:26:48;5.40;99.90
29363;DHT22;16349;53.672;10.014;2022-11-15T05:29:33;5.50;99.90
29363;DHT22;16349;53.672;10.014;2022-11-15T05:32:19;5.60;99.90
29363;DHT22;16349;53.672;10.014;2022-11-15T05:35:08;5.60;99.90
29363;DHT22;16349;53.672;10.014;2022-11-15T05:37:56;5.70;99.90
29363;DHT22;16349;53.672;10.014;2022-11-15T05:40:43;5.70;99.90
29363;DHT22;16349;53.672;10.014;2022-11-15T05:43:31;5.70;99.90
29363;DHT22;16349;53.672;10.014;2022-11-15T05:46:19;5.80;99.90
29363;DHT22;16349;53.672;10.014;2022-11-15T05:49:07;5.80;99.90
29363;DHT22;16349;53.672;10.014;2022-11-15T05:51:55;5.80;99.90
29363;DHT22;16349;53.672;10.014;2022-11-15T05:54:42;5.90;99.90
29363;DHT22;16349;53.672;10.014;2022-11-15T05:57:28;5.90;99.90
29363;DHT22;16349;53.672;10.014;2022-11-15T06:00:14;5.90;99.90
29363;DHT22;16349;53.672;10.014;2022-11-15T06:02:59;5.90;99.90
29363;DHT22;16349;53.672;10.014;2022-11-15T06:05:45;6.00;99.90
29363;DHT22;16349;53.672;10.014;2022-11-15T06:08:30;6.00;99.90
29363;DHT22;16349;53.672;10.014;2022-11-15T06:11:17;6.10;99.90
29363;DHT22;16349;53.672;10.014;2022-11-15T06:14:03;6.10;99.90
29363;DHT22;16349;53.672;10.014;2022-11-15T06:16:48;6.10;99.90
29363;DHT22;16349;53.672;10.014;2022-11-15T06:19:34;6.10;99.90
29363;DHT22;16349;53.672;10.014;2022-11-15T06:22:19;6.20;99.90
29363;DHT22;16349;53.672;10.014;2022-11-15T06:25:05;6.20;99.90
29363;DHT22;16349;53.672;10.014;2022-11-15T06:27:53;6.20;99.90
29363;DHT22;16349;53.672;10.014;2022-11-15T06:30:39;6.30;99.90
29363;DHT22;16349;53.672;10.014;2022-11-15T06:33:24;6.30;99.90
29363;DHT22;16349;53.672;10.014;2022-11-15T06:36:11;6.40;99.90
29363;DHT22;16349;53.672;10.014;2022-11-15T06:39:00;6.40;99.90
29363;DHT22;16349;53.672;10.014;2022-11-15T06:41:46;6.40;99.90
29363;DHT22;16349;53.672;10.014;2022-11-15T06:44:33;6.40;99.90
29363;DHT22;16349;53.672;10.014;2022-11-15T06:47:18;6.50;99.90
29363;DHT22;16349;53.672;10.014;2022-11-15T06:50:05;6.50;99.90
29363;DHT22;16349;53.672;10.014;2022-11-15T06:52:50;6.50;99.90
29363;DHT22;16349;53.672;10.014;2022-11-15T06:55:36;6.50;99.90
29363;DHT22;16349;53.672;10.014;2022-11-15T06:58:22;6.60;99.90
29363;DHT22;16349;53.672;10.014;2022-11-15T07:01:10;6.50;99.90
29363;DHT22;16349;53.672;10.014;2022-11-15T07:03:56;6.60;99.90
29363;DHT22;16349;53.672;10.014;2022-11-15T07:06:41;6.60;99.90
29363;DHT22;16349;53.672;10.014;2022-11-15T07:09:26;6.60;99.90
29363;DHT22;16349;53.672;10.014;2022-11-15T07:12:12;6.70;99.90
29363;DHT22;16349;53.672;10.014;2022-11-15T07:14:57;6.70;99.90
29363;DHT22;16349;53.672;10.014;2022-11-15T07:17:44;6.70;99.90
29363;DHT22;16349;53.672;10.014;2022-11-15T07:20:30;6.70;99.90
29363;DHT22;16349;53.672;10.014;2022-11-15T07:23:15;6.80;99.90
29363;DHT22;16349;53.672;10.014;2022-11-15T07:26:01;6.80;99.90
29363;DHT22;16349;53.672;10.014;2022-11-15T07:28:47;6.80;99.90
29363;DHT22;16349;53.672;10.014;2022-11-15T07:31:33;6.90;99.90
29363;DHT22;16349;53.672;10.014;2022-11-15T07:34:20;6.90;99.90
29363;DHT22;16349;53.672;10.014;2022-11-15T07:37:06;6.90;99.90
29363;DHT22;16349;53.672;10.014;2022-11-15T07:39:52;7.00;99.90
29363;DHT22;16349;53.672;10.014;2022-11-15T07:42:38;7.00;99.90
29363;DHT22;16349;53.672;10.014;2022-11-15T07:45:40;7.00;99.90
29363;DHT22;16349;53.672;10.014;2022-11-15T07:48:26;7.10;99.90
29363;DHT22;16349;53.672;10.014;2022-11-15T07:51:14;7.10;99.90
29363;DHT22;16349;53.672;10.014;2022-11-15T07:53:59;7.10;99.90
29363;DHT22;16349;53.672;10.014;2022-11-15T07:56:45;7.10;99.90
29363;DHT22;16349;53.672;10.014;2022-11-15T07:59:31;7.10;99.90
29363;DHT22;16349;53.672;10.014;2022-11-15T08:02:16;7.10;99.90
29363;DHT22;16349;53.672;10.014;2022-11-15T08:05:03;7.20;99.90
29363;DHT22;16349;53.672;10.014;2022-11-15T08:07:50;7.20;99.90
29363;DHT22;16349;53.672;10.014;2022-11-15T08:10:36;7.20;99.90
29363;DHT22;16349;53.672;10.014;2022-11-15T08:13:22;7.20;99.90
29363;DHT22;16349;53.672;10.014;2022-11-15T08:16:08;7.30;99.90
29363;DHT22;16349;53.672;10.014;2022-11-15T08:18:56;7.30;99.90
29363;DHT22;16349;53.672;10.014;2022-11-15T08:21:42;7.30;99.90
29363;DHT22;16349;53.672;10.014;2022-11-15T08:24:29;7.30;99.90
29363;DHT22;16349;53.672;10.014;2022-11-15T08:27:15;7.40;99.90
29363;DHT22;16349;53.672;10.014;2022-11-15T08:30:01;7.40;99.90
29363;DHT22;16349;53.672;10.014;2022-11-15T08:32:47;7.40;99.90
29363;DHT22;16349;53.672;10.014;2022-11-15T08:35:33;7.50;99.90
29363;DHT22;16349;53.672;10.014;2022-11-15T08:38:19;7.50;99.90
29363;DHT22;16349;53.672;10.014;2022-11-15T08:41:07;7.50;99.90
29363;DHT22;16349;53.672;10.014;2022-11-15T08:43:52;7.50;99.90
29363;DHT22;16349;53.672;10.014;2022-11-15T08:46:38;7.60;99.90
29363;DHT22;16349;53.672;10.014;2022-11-15T08:49:24;7.60;99.90
29363;DHT22;16349;53.672;10.014;2022-11-15T08:52:09;7.70;99.90
29363;DHT22;16349;53.672;10.014;2022-11-15T08:54:55;7.70;99.90
29363;DHT22;16349;53.672;10.014;2022-11-15T08:57:42;7.70;99.90
29363;DHT22;16349;53.672;10.014;2022-11-15T09:00:27;7.80;99.90
29363;DHT22;16349;53.672;10.014;2022-11-15T09:03:13;7.80;99.90
29363;DHT22;16349;53.672;10.014;2022-11-15T09:06:00;7.80;99.90
29363;DHT22;16349;53.672;10.014;2022-11-15T09:08:46;7.80;99.90
29363;DHT22;16349;53.672;10.014;2022-11-15T09:11:33;7.90;99.90
29363;DHT22;16349;53.672;10.014;2022-11-15T09:14:19;7.90;99.90
29363;DHT22;16349;53.672;10.014;2022-11-15T09:17:07;7.90;99.90
29363;DHT22;16349;53.672;10.014;2022-11-15T09:19:53;8.00;99.90
29363;DHT22;16349;53.672;10.014;2022-11-15T09:22:39;8.00;99.90
29363;DHT22;16349;53.672;10.014;2022-11-15T09:25:25;8.00;99.90
29363;DHT22;16349;53.672;10.014;2022-11-15T09:28:10;8.00;99.90
29363;DHT22;16349;53.672;10.014;2022-11-15T09:30:58;8.10;99.90
29363;DHT22;16349;53.672;10.014;2022-11-15T09:33:44;8.10;99.90
29363;DHT22;16349;53.672;10.014;2022-11-15T09:36:30;8.10;99.90
29363;DHT22;16349;53.672;10.014;2022-11-15T09:39:16;8.20;99.90
29363;DHT22;16349;53.672;10.014;2022-11-15T09:42:18;8.20;99.90
29363;DHT22;16349;53.672;10.014;2022-11-15T09:45:15;8.20;99.90
29363;DHT22;16349;53.672;10.014;2022-11-15T09:48:23;8.30;99.90
29363;DHT22;16349;53.672;10.014;2022-11-15T09:51:25;8.30;99.90
29363;DHT22;16349;53.672;10.014;2022-11-15T09:54:00;8.40;99.90
29363;DHT22;16349;53.672;10.014;2022-11-15T09:56:30;8.40;99.90
29363;DHT22;16349;53.672;10.014;2022-11-15T09:59:07;8.50;99.90
29363;DHT22;16349;53.672;10.014;2022-11-15T10:01:43;8.50;99.90
29363;DHT22;16349;53.672;10.014;2022-11-15T10:04:13;8.60;99.90
29363;DHT22;16349;53.672;10.014;2022-11-15T10:06:45;8.60;99.90
29363;DHT22;16349;53.672;10.014;2022-11-15T10:09:17;8.60;99.90
29363;DHT22;16349;53.672;10.014;2022-11-15T10:11:45;8.70;99.90
29363;DHT22;16349;53.672;10.014;2022-11-15T10:14:15;8.70;99.90
29363;DHT22;16349;53.672;10.014;2022-11-15T10:17:16;8.80;99.90
29363;DHT22;16349;53.672;10.014;2022-11-15T10:19:56;8.80;99.90
29363;DHT22;16349;53.672;10.014;2022-11-15T10:22:27;8.80;99.90
29363;DHT22;16349;53.672;10.014;2022-11-15T10:25:20;8.90;99.90
29363;DHT22;16349;53.672;10.014;2022-11-15T10:27:53;9.00;99.90
29363;DHT22;16349;53.672;10.014;2022-11-15T10:30:21;9.00;99.90
29363;DHT22;16349;53.672;10.014;2022-11-15T10:32:49;9.10;99.90
29363;DHT22;16349;53.672;10.014;2022-11-15T10:35:23;9.10;99.90
29363;DHT22;16349;53.672;10.014;2022-11-15T10:37:50;9.10;99.90
29363;DHT22;16349;53.672;10.014;2022-11-15T10:40:20;9.20;99.90
29363;DHT22;16349;53.672;10.014;2022-11-15T10:42:48;9.20;99.90
29363;DHT22;16349;53.672;10.014;2022-11-15T10:45:27;9.20;99.90
29363;DHT22;16349;53.672;10.014;2022-11-15T10:48:23;9.30;99.90
29363;DHT22;16349;53.672;10.014;2022-11-15T10:50:53;9.30;99.90
29363;DHT22;16349;53.672;10.014;2022-11-15T10:53:28;9.40;99.90
29363;DHT22;16349;53.672;10.014;2022-11-15T10:55:59;9.40;99.90
29363;DHT22;16349;53.672;10.014;2022-11-15T10:58:34;9.40;99.90
29363;DHT22;16349;53.672;10.014;2022-11-15T11:01:12;9.50;99.90
29363;DHT22;16349;53.672;10.014;2022-11-15T11:03:42;9.50;99.90
29363;DHT22;16349;53.672;10.014;2022-11-15T11:06:13;9.50;99.90
29363;DHT22;16349;53.672;10.014;2022-11-15T11:08:54;9.60;99.90
29363;DHT22;16349;53.672;10.014;2022-11-15T11:11:21;9.60;99.90
29363;DHT22;16349;53.672;10.014;2022-11-15T11:13:48;9.70;99.90
29363;DHT22;16349;53.672;10.014;2022-11-15T11:19:05;9.80;99.90
29363;DHT22;16349;53.672;10.014;2022-11-15T11:21:42;9.80;99.90
29363;DHT22;16349;53.672;10.014;2022-11-15T11:24:17;9.90;99.90
29363;DHT22;16349;53.672;10.014;2022-11-15T11:26:59;9.90;99.90
29363;DHT22;16349;53.672;10.014;2022-11-15T11:29:39;9.90;99.90
29363;DHT22;16349;53.672;10.014;2022-11-15T11:32:21;10.00;99.90
29363;DHT22;16349;53.672;10.014;2022-11-15T11:34:55;10.00;99.90
29363;DHT22;16349;53.672;10.014;2022-11-15T11:37:29;10.00;99.90
29363;DHT22;16349;53.672;10.014;2022-11-15T11:40:07;10.10;99.90
29363;DHT22;16349;53.672;10.014;2022-11-15T11:42:43;10.20;99.90
29363;DHT22;16349;53.672;10.014;2022-11-15T11:45:21;10.20;99.90
29363;DHT22;16349;53.672;10.014;2022-11-15T11:47:55;10.20;99.90
29363;DHT22;16349;53.672;10.014;2022-11-15T11:50:26;10.30;99.90
29363;DHT22;16349;53.672;10.014;2022-11-15T11:53:25;10.30;99.90
29363;DHT22;16349;53.672;10.014;2022-11-15T11:55:58;10.40;99.90
29363;DHT22;16349;53.672;10.014;2022-11-15T11:58:34;10.40;99.90
29363;DHT22;16349;53.672;10.014;2022-11-15T12:01:15;10.40;99.90
29363;DHT22;16349;53.672;10.014;2022-11-15T12:03:46;10.40;99.90
29363;DHT22;16349;53.672;10.014;2022-11-15T12:06:21;10.50;99.90
29363;DHT22;16349;53.672;10.014;2022-11-15T12:08:58;10.50;99.90
29363;DHT22;16349;53.672;10.014;2022-11-15T12:11:30;10.50;99.90
29363;DHT22;16349;53.672;10.014;2022-11-15T12:14:05;10.60;99.90
29363;DHT22;16349;53.672;10.014;2022-11-15T12:16:36;10.60;99.90
29363;DHT22;16349;53.672;10.014;2022-11-15T12:19:08;10.60;99.90
29363;DHT22;16349;53.672;10.014;2022-11-15T12:21:39;10.70;99.90
29363;DHT22;16349;53.672;10.014;2022-11-15T12:24:14;10.70;99.90
29363;DHT22;16349;53.672;10.014;2022-11-15T12:27:10;10.70;99.90
29363;DHT22;16349;53.672;10.014;2022-11-15T12:29:46;10.80;99.90
29363;DHT22;16349;53.672;10.014;2022-11-15T12:32:24;10.80;99.90
29363;DHT22;16349;53.672;10.014;2022-11-15T12:34:53;10.80;99.90
29363;DHT22;16349;53.672;10.014;2022-11-15T12:37:51;10.90;99.90
29363;DHT22;16349;53.672;10.014;2022-11-15T12:40:24;11.00;99.90
29363;DHT22;16349;53.672;10.014;2022-11-15T12:42:59;11.00;99.90
29363;DHT22;16349;53.672;10.014;2022-11-15T12:45:28;11.10;99.90
29363;DHT22;16349;53.672;10.014;2022-11-15T12:51:09;11.20;99.90
29363;DHT22;16349;53.672;10.014;2022-11-15T12:53:35;11.10;99.90
29363;DHT22;16349;53.672;10.014;2022-11-15T12:56:21;11.20;99.90
29363;DHT22;16349;53.672;10.014;2022-11-15T12:58:52;11.20;99.90
29363;DHT22;16349;53.672;10.014;2022-11-15T13:01:57;11.30;99.90
29363;DHT22;16349;53.672;10.014;2022-11-15T13:04:28;11.30;99.90
29363;DHT22;16349;53.672;10.014;2022-11-15T13:06:56;11.40;99.90
29363;DHT22;16349;53.672;10.014;2022-11-15T13:09:53;11.30;99.90
29363;DHT22;16349;53.672;10.014;2022-11-15T13:12:53;11.40;99.90
29363;DHT22;16349;53.672;10.014;2022-11-15T13:15:33;11.40;99.90
29363;DHT22;16349;53.672;10.014;2022-11-15T13:18:25;11.50;99.90
29363;DHT22;16349;53.672;10.014;2022-11-15T13:20:53;11.50;99.90
29363;DHT22;16349;53.672;10.014;2022-11-15T13:23:21;11.50;99.90
29363;DHT22;16349;53.672;10.014;2022-11-15T13:26:03;11.50;99.90
29363;DHT22;16349;53.672;10.014;2022-11-15T13:28:37;11.60;99.90
29363;DHT22;16349;53.672;10.014;2022-11-15T13:31:28;11.60;99.90
29363;DHT22;16349;53.672;10.014;2022-11-15T13:33:58;11.70;99.90
29363;DHT22;16349;53.672;10.014;2022-11-15T13:36:27;11.70;99.90
29363;DHT22;16349;53.672;10.014;2022-11-15T13:38:57;11.70;99.90
29363;DHT22;16349;53.672;10.014;2022-11-15T13:41:25;11.70;99.90
29363;DHT22;16349;53.672;10.014;2022-11-15T13:43:55;11.90;99.90
29363;DHT22;16349;53.672;10.014;2022-11-15T13:46:24;11.90;99.90
29363;DHT22;16349;53.672;10.014;2022-11-15T13:48:53;11.80;99.90
29363;DHT22;16349;53.672;10.014;2022-11-15T13:51:28;11.90;99.90
29363;DHT22;16349;53.672;10.014;2022-11-15T13:53:58;12.00;99.90
29363;DHT22;16349;53.672;10.014;2022-11-15T13:56:29;12.10;99.90
29363;DHT22;16349;53.672;10.014;2022-11-15T13:58:59;12.20;99.90
29363;DHT22;16349;53.672;10.014;2022-11-15T14:01:29;12.20;99.90
29363;DHT22;16349;53.672;10.014;2022-11-15T14:03:59;12.30;99.90
29363;DHT22;16349;53.672;10.014;2022-11-15T14:06:29;12.30;99.90
29363;DHT22;16349;53.672;10.014;2022-11-15T14:09:35;12.30;99.90
29363;DHT22;16349;53.672;10.014;2022-11-15T14:12:22;12.30;99.90
29363;DHT22;16349;53.672;10.014;2022-11-15T14:14:53;12.30;99.90
29363;DHT22;16349;53.672;10.014;2022-11-15T14:17:21;12.40;99.90
29363;DHT22;16349;53.672;10.014;2022-11-15T14:20:00;12.40;99.90
29363;DHT22;16349;53.672;10.014;2022-11-15T14:22:30;12.40;99.90
29363;DHT22;16349;53.672;10.014;2022-11-15T14:25:14;12.40;99.90
29363;DHT22;16349;53.672;10.014;2022-11-15T14:27:43;12.30;99.90
29363;DHT22;16349;53.672;10.014;2022-11-15T14:30:15;12.20;99.90
29363;DHT22;16349;53.672;10.014;2022-11-15T14:32:44;12.10;99.90
29363;DHT22;16349;53.672;10.014;2022-11-15T14:35:15;12.00;99.90
29363;DHT22;16349;53.672;10.014;2022-11-15T14:37:43;12.00;99.90
29363;DHT22;16349;53.672;10.014;2022-11-15T14:40:13;11.90;99.90
29363;DHT22;16349;53.672;10.014;2022-11-15T14:42:40;11.80;99.90
29363;DHT22;16349;53.672;10.014;2022-11-15T14:45:11;11.80;99.90
29363;DHT22;16349;53.672;10.014;2022-11-15T14:47:40;11.80;99.90
29363;DHT22;16349;53.672;10.014;2022-11-15T14:50:11;11.70;99.90
29363;DHT22;16349;53.672;10.014;2022-11-15T14:52:39;11.60;99.90
29363;DHT22;16349;53.672;10.014;2022-11-15T14:55:14;11.60;99.90
29363;DHT22;16349;53.672;10.014;2022-11-15T14:57:41;11.60;99.90
29363;DHT22;16349;53.672;10.014;2022-11-15T15:00:09;11.50;99.90
29363;DHT22;16349;53.672;10.014;2022-11-15T15:02:41;11.40;99.90
29363;DHT22;16349;53.672;10.014;2022-11-15T15:05:16;11.40;99.90
29363;DHT22;16349;53.672;10.014;2022-11-15T15:07:44;11.40;99.90
29363;DHT22;16349;53.672;10.014;2022-11-15T15:10:12;11.30;99.90
29363;DHT22;16349;53.672;10.014;2022-11-15T15:12:39;11.20;99.90
29363;DHT22;16349;53.672;10.014;2022-11-15T15:15:14;11.20;99.90
29363;DHT22;16349;53.672;10.014;2022-11-15T15:17:43;11.20;99.90
29363;DHT22;16349;53.672;10.014;2022-11-15T15:20:10;11.10;99.90
29363;DHT22;16349;53.672;10.014;2022-11-15T15:22:38;11.00;99.90
29363;DHT22;16349;53.672;10.014;2022-11-15T15:25:20;11.00;99.90
29363;DHT22;16349;53.672;10.014;2022-11-15T15:27:47;10.90;99.90
29363;DHT22;16349;53.672;10.014;2022-11-15T15:30:15;10.90;99.90
29363;DHT22;16349;53.672;10.014;2022-11-15T15:32:43;10.80;99.90
29363;DHT22;16349;53.672;10.014;2022-11-15T15:35:12;10.80;99.90
29363;DHT22;16349;53.672;10.014;2022-11-15T15:37:39;10.70;99.90
29363;DHT22;16349;53.672;10.014;2022-11-15T15:40:12;10.70;99.90
29363;DHT22;16349;53.672;10.014;2022-11-15T15:42:39;10.70;99.90
29363;DHT22;16349;53.672;10.014;2022-11-15T15:45:07;10.60;99.90
29363;DHT22;16349;53.672;10.014;2022-11-15T15:47:34;10.60;99.90
29363;DHT22;16349;53.672;10.014;2022-11-15T15:50:04;10.50;99.90
29363;DHT22;16349;53.672;10.014;2022-11-15T15:52:38;10.50;99.90
29363;DHT22;16349;53.672;10.014;2022-11-15T15:55:06;10.40;99.90
29363;DHT22;16349;53.672;10.014;2022-11-15T15:57:34;10.40;99.90
29363;DHT22;16349;53.672;10.014;2022-11-15T16:00:01;10.40;99.90
29363;DHT22;16349;53.672;10.014;2022-11-15T16:02:37;10.30;99.90
29363;DHT22;16349;53.672;10.014;2022-11-15T16:05:06;10.30;99.90
29363;DHT22;16349;53.672;10.014;2022-11-15T16:07:33;10.20;99.90
29363;DHT22;16349;53.672;10.014;2022-11-15T16:10:00;10.10;99.90
29363;DHT22;16349;53.672;10.014;2022-11-15T16:12:27;10.10;99.90
29363;DHT22;16349;53.672;10.014;2022-11-15T16:14:54;10.10;99.90
29363;DHT22;16349;53.672;10.014;2022-11-15T16:17:23;10.10;99.90
29363;DHT22;16349;53.672;10.014;2022-11-15T16:19:50;10.10;99.90
29363;DHT22;16349;53.672;10.014;2022-11-15T16:22:18;10.00;99.90
29363;DHT22;16349;53.672;10.014;2022-11-15T16:24:45;10.00;99.90
29363;DHT22;16349;53.672;10.014;2022-11-15T16:27:14;10.00;99.90
29363;DHT22;16349;53.672;10.014;2022-11-15T16:29:41;10.00;99.90
29363;DHT22;16349;53.672;10.014;2022-11-15T16:32:08;10.00;99.90
29363;DHT22;16349;53.672;10.014;2022-11-15T16:34:35;10.00;99.90
29363;DHT22;16349;53.672;10.014;2022-11-15T16:37:02;10.00;99.90
29363;DHT22;16349;53.672;10.014;2022-11-15T16:39:31;10.00;99.90
29363;DHT22;16349;53.672;10.014;2022-11-15T16:41:58;10.10;99.90
29363;DHT22;16349;53.672;10.014;2022-11-15T16:44:25;10.10;99.90
29363;DHT22;16349;53.672;10.014;2022-11-15T16:46:52;10.10;99.90
29363;DHT22;16349;53.672;10.014;2022-11-15T16:49:20;10.10;99.90
29363;DHT22;16349;53.672;10.014;2022-11-15T16:51:49;10.20;99.90
29363;DHT22;16349;53.672;10.014;2022-11-15T16:54:15;10.20;99.90
29363;DHT22;16349;53.672;10.014;2022-11-15T16:56:44;10.20;99.90
29363;DHT22;16349;53.672;10.014;2022-11-15T16:59:15;10.20;99.90
29363;DHT22;16349;53.672;10.014;2022-11-15T17:01:43;10.20;99.90
29363;DHT22;16349;53.672;10.014;2022-11-15T17:04:16;10.30;99.90